sensor_id;sensor_type;location;lat;lon;timestamp;P1;durP1;ratioP1;P2;durP2;ratioP2
5125;SDS011;63008;53.112;8.896;2022-12-13T00:00:40;65.10;;;33.17;;
5125;SDS011;63008;53.112;8.896;2022-12-13T00:02:41;67.10;;;33.10;;
5125;SDS011;63008;53.112;8.896;2022-12-13T00:04:42;59.27;;;32.33;;
5125;SDS011;63008;53.112;8.896;2022-12-13T00:06:43;60.03;;;32.17;;
5125;SDS011;63008;53.112;8.896;2022-12-13T00:08:45;58.40;;;33.40;;
5125;SDS011;63008;53.112;8.896;2022-12-13T00:10:46;61.50;;;33.13;;
5125;SDS011;63008;53.112;8.896;2022-12-13T00:12:47;66.43;;;33.77;;
5125;SDS011;63008;53.112;8.896;2022-12-13T00:14:48;67.97;;;33.77;;
5125;SDS011;63008;53.112;8.896;2022-12-13T00:16:49;59.77;;;32.07;;
5125;SDS011;63008;53.112;8.896;2022-12-13T00:18:51;57.77;;;32.83;;
5125;SDS011;63008;53.112;8.896;2022-12-13T00:20:54;56.63;;;31.70;;
5125;SDS011;63008;53.112;8.896;2022-12-13T00:22:56;62.77;;;33.00;;
5125;SDS011;63008;53.112;8.896;2022-12-13T00:24:57;56.40;;;31.90;;
5125;SDS011;63008;53.112;8.896;2022-12-13T00:26:58;63.07;;;33.70;;
5125;SDS011;63008;53.112;8.896;2022-12-13T00:28:59;62.40;;;32.80;;
5125;SDS011;63008;53.112;8.896;2022-12-13T00:31:02;63.03;;;32.60;;
5125;SDS011;63008;53.112;8.896;2022-12-13T00:33:03;61.93;;;32.47;;
5125;SDS011;63008;53.112;8.896;2022-12-13T00:35:04;61.60;;;34.03;;
5125;SDS011;63008;53.112;8.896;2022-12-13T00:37:06;56.93;;;30.90;;
5125;SDS011;63008;53.112;8.896;2022-12-13T00:39:07;56.50;;;31.50;;
5125;SDS011;63008;53.112;8.896;2022-12-13T00:41:09;60.43;;;31.93;;
5125;SDS011;63008;53.112;8.896;2022-12-13T00:43:17;59.57;;;32.10;;
5125;SDS011;63008;53.112;8.896;2022-12-13T00:45:18;55.73;;;31.20;;
5125;SDS011;63008;53.112;8.896;2022-12-13T00:47:19;61.30;;;32.40;;
5125;SDS011;63008;53.112;8.896;2022-12-13T00:49:21;58.90;;;30.93;;
5125;SDS011;63008;53.112;8.896;2022-12-13T00:51:23;55.33;;;30.60;;
5125;SDS011;63008;53.112;8.896;2022-12-13T00:53:24;56.20;;;30.50;;
5125;SDS011;63008;53.112;8.896;2022-12-13T00:55:25;58.63;;;29.33;;
5125;SDS011;63008;53.112;8.896;2022-12-13T00:57:27;57.30;;;30.17;;
5125;SDS011;63008;53.112;8.896;2022-12-13T00:59:28;59.20;;;30.03;;
5125;SDS011;63008;53.112;8.896;2022-12-13T01:01:30;63.93;;;33.40;;
5125;SDS011;63008;53.112;8.896;2022-12-13T01:03:33;58.70;;;31.87;;
5125;SDS011;63008;53.112;8.896;2022-12-13T01:05:34;62.27;;;33.20;;
5125;SDS011;63008;53.112;8.896;2022-12-13T01:07:35;61.70;;;31.87;;
5125;SDS011;63008;53.112;8.896;2022-12-13T01:09:37;56.33;;;30.50;;
5125;SDS011;63008;53.112;8.896;2022-12-13T01:11:39;59.80;;;31.80;;
5125;SDS011;63008;53.112;8.896;2022-12-13T01:13:40;55.97;;;28.60;;
5125;SDS011;63008;53.112;8.896;2022-12-13T01:15:42;53.60;;;29.40;;
5125;SDS011;63008;53.112;8.896;2022-12-13T01:17:45;56.33;;;28.90;;
5125;SDS011;63008;53.112;8.896;2022-12-13T01:19:46;56.43;;;31.50;;
5125;SDS011;63008;53.112;8.896;2022-12-13T01:21:47;56.17;;;29.13;;
5125;SDS011;63008;53.112;8.896;2022-12-13T01:23:48;54.73;;;30.10;;
5125;SDS011;63008;53.112;8.896;2022-12-13T01:25:49;57.13;;;30.60;;
5125;SDS011;63008;53.112;8.896;2022-12-13T01:27:51;56.77;;;30.60;;
5125;SDS011;63008;53.112;8.896;2022-12-13T01:29:52;60.53;;;32.07;;
5125;SDS011;63008;53.112;8.896;2022-12-13T01:31:53;60.13;;;31.53;;
5125;SDS011;63008;53.112;8.896;2022-12-13T01:33:54;58.17;;;30.97;;
5125;SDS011;63008;53.112;8.896;2022-12-13T01:35:55;62.60;;;31.77;;
5125;SDS011;63008;53.112;8.896;2022-12-13T01:37:59;62.50;;;30.60;;
5125;SDS011;63008;53.112;8.896;2022-12-13T01:40:00;54.10;;;30.97;;
5125;SDS011;63008;53.112;8.896;2022-12-13T01:42:03;62.13;;;31.83;;
5125;SDS011;63008;53.112;8.896;2022-12-13T01:44:04;60.00;;;32.70;;
5125;SDS011;63008;53.112;8.896;2022-12-13T01:46:25;54.63;;;30.70;;
5125;SDS011;63008;53.112;8.896;2022-12-13T01:48:28;56.50;;;30.70;;
5125;SDS011;63008;53.112;8.896;2022-12-13T01:50:34;57.97;;;30.23;;
5125;SDS011;63008;53.112;8.896;2022-12-13T01:52:41;59.70;;;31.77;;
5125;SDS011;63008;53.112;8.896;2022-12-13T01:54:45;54.20;;;28.70;;
5125;SDS011;63008;53.112;8.896;2022-12-13T01:56:50;56.80;;;30.80;;
5125;SDS011;63008;53.112;8.896;2022-12-13T01:58:53;58.37;;;30.07;;
5125;SDS011;63008;53.112;8.896;2022-12-13T02:00:56;58.77;;;30.10;;
5125;SDS011;63008;53.112;8.896;2022-12-13T02:02:59;57.37;;;29.57;;
5125;SDS011;63008;53.112;8.896;2022-12-13T02:07:14;54.73;;;29.83;;
5125;SDS011;63008;53.112;8.896;2022-12-13T02:09:18;54.97;;;30.57;;
5125;SDS011;63008;53.112;8.896;2022-12-13T02:11:20;57.63;;;32.13;;
5125;SDS011;63008;53.112;8.896;2022-12-13T02:13:21;56.67;;;28.80;;
5125;SDS011;63008;53.112;8.896;2022-12-13T02:15:22;65.23;;;31.47;;
5125;SDS011;63008;53.112;8.896;2022-12-13T02:17:28;52.70;;;31.17;;
5125;SDS011;63008;53.112;8.896;2022-12-13T02:22:54;61.40;;;31.60;;
5125;SDS011;63008;53.112;8.896;2022-12-13T02:27:06;58.83;;;30.63;;
5125;SDS011;63008;53.112;8.896;2022-12-13T02:34:25;50.80;;;29.50;;
5125;SDS011;63008;53.112;8.896;2022-12-13T02:36:34;55.57;;;29.40;;
5125;SDS011;63008;53.112;8.896;2022-12-13T02:39:01;61.90;;;31.37;;
5125;SDS011;63008;53.112;8.896;2022-12-13T02:41:10;53.83;;;30.03;;
5125;SDS011;63008;53.112;8.896;2022-12-13T02:43:37;53.03;;;29.37;;
5125;SDS011;63008;53.112;8.896;2022-12-13T02:46:05;51.37;;;29.50;;
5125;SDS011;63008;53.112;8.896;2022-12-13T02:48:09;59.10;;;31.63;;
5125;SDS011;63008;53.112;8.896;2022-12-13T02:50:13;64.93;;;30.03;;
5125;SDS011;63008;53.112;8.896;2022-12-13T02:52:16;55.53;;;29.73;;
5125;SDS011;63008;53.112;8.896;2022-12-13T02:54:20;56.10;;;29.40;;
5125;SDS011;63008;53.112;8.896;2022-12-13T02:56:23;60.33;;;28.50;;
5125;SDS011;63008;53.112;8.896;2022-12-13T02:58:28;56.33;;;29.60;;
5125;SDS011;63008;53.112;8.896;2022-12-13T03:00:43;57.60;;;30.07;;
5125;SDS011;63008;53.112;8.896;2022-12-13T03:03:21;54.40;;;28.40;;
5125;SDS011;63008;53.112;8.896;2022-12-13T03:08:39;53.10;;;29.93;;
5125;SDS011;63008;53.112;8.896;2022-12-13T03:11:02;55.93;;;30.70;;
5125;SDS011;63008;53.112;8.896;2022-12-13T03:13:07;55.87;;;31.90;;
5125;SDS011;63008;53.112;8.896;2022-12-13T03:15:44;54.20;;;29.97;;
5125;SDS011;63008;53.112;8.896;2022-12-13T03:19:56;58.47;;;30.93;;
5125;SDS011;63008;53.112;8.896;2022-12-13T03:21:57;55.17;;;30.47;;
5125;SDS011;63008;53.112;8.896;2022-12-13T03:23:58;56.07;;;30.10;;
5125;SDS011;63008;53.112;8.896;2022-12-13T03:26:12;52.80;;;29.07;;
5125;SDS011;63008;53.112;8.896;2022-12-13T03:28:16;54.40;;;29.43;;
5125;SDS011;63008;53.112;8.896;2022-12-13T03:30:17;52.40;;;29.50;;
5125;SDS011;63008;53.112;8.896;2022-12-13T03:32:19;62.50;;;30.13;;
5125;SDS011;63008;53.112;8.896;2022-12-13T03:34:20;52.97;;;30.03;;
5125;SDS011;63008;53.112;8.896;2022-12-13T03:36:21;64.43;;;32.77;;
5125;SDS011;63008;53.112;8.896;2022-12-13T03:38:22;55.10;;;29.40;;
5125;SDS011;63008;53.112;8.896;2022-12-13T03:40:23;53.50;;;29.60;;
5125;SDS011;63008;53.112;8.896;2022-12-13T03:42:24;53.30;;;28.33;;
5125;SDS011;63008;53.112;8.896;2022-12-13T03:44:25;54.27;;;28.90;;
5125;SDS011;63008;53.112;8.896;2022-12-13T03:46:26;50.17;;;27.53;;
5125;SDS011;63008;53.112;8.896;2022-12-13T03:48:27;53.53;;;29.00;;
5125;SDS011;63008;53.112;8.896;2022-12-13T03:50:28;56.10;;;30.10;;
5125;SDS011;63008;53.112;8.896;2022-12-13T03:52:29;51.10;;;29.03;;
5125;SDS011;63008;53.112;8.896;2022-12-13T03:54:30;58.30;;;30.53;;
5125;SDS011;63008;53.112;8.896;2022-12-13T03:56:31;53.03;;;28.27;;
5125;SDS011;63008;53.112;8.896;2022-12-13T03:58:33;53.87;;;29.27;;
5125;SDS011;63008;53.112;8.896;2022-12-13T04:00:34;47.70;;;26.17;;
5125;SDS011;63008;53.112;8.896;2022-12-13T04:02:35;50.40;;;28.00;;
5125;SDS011;63008;53.112;8.896;2022-12-13T04:04:36;56.67;;;28.67;;
5125;SDS011;63008;53.112;8.896;2022-12-13T04:06:37;55.43;;;28.30;;
5125;SDS011;63008;53.112;8.896;2022-12-13T04:08:38;53.03;;;27.83;;
5125;SDS011;63008;53.112;8.896;2022-12-13T04:10:39;54.17;;;28.30;;
5125;SDS011;63008;53.112;8.896;2022-12-13T04:12:40;44.93;;;26.93;;
5125;SDS011;63008;53.112;8.896;2022-12-13T04:14:59;55.80;;;27.77;;
5125;SDS011;63008;53.112;8.896;2022-12-13T04:17:00;57.67;;;29.00;;
5125;SDS011;63008;53.112;8.896;2022-12-13T04:19:02;53.00;;;28.30;;
5125;SDS011;63008;53.112;8.896;2022-12-13T04:21:03;51.40;;;28.70;;
5125;SDS011;63008;53.112;8.896;2022-12-13T04:23:04;53.87;;;28.20;;
5125;SDS011;63008;53.112;8.896;2022-12-13T04:25:05;49.40;;;28.37;;
5125;SDS011;63008;53.112;8.896;2022-12-13T04:27:06;47.17;;;27.33;;
5125;SDS011;63008;53.112;8.896;2022-12-13T04:29:07;51.33;;;26.83;;
5125;SDS011;63008;53.112;8.896;2022-12-13T04:31:08;48.53;;;27.90;;
5125;SDS011;63008;53.112;8.896;2022-12-13T04:33:09;50.30;;;28.23;;
5125;SDS011;63008;53.112;8.896;2022-12-13T04:35:10;60.07;;;28.13;;
5125;SDS011;63008;53.112;8.896;2022-12-13T04:37:11;58.10;;;30.03;;
5125;SDS011;63008;53.112;8.896;2022-12-13T04:39:12;50.43;;;28.43;;
5125;SDS011;63008;53.112;8.896;2022-12-13T04:41:14;51.27;;;28.27;;
5125;SDS011;63008;53.112;8.896;2022-12-13T04:43:16;50.07;;;27.70;;
5125;SDS011;63008;53.112;8.896;2022-12-13T04:45:17;53.50;;;28.23;;
5125;SDS011;63008;53.112;8.896;2022-12-13T04:47:19;58.07;;;29.00;;
5125;SDS011;63008;53.112;8.896;2022-12-13T04:49:20;61.67;;;30.33;;
5125;SDS011;63008;53.112;8.896;2022-12-13T04:51:20;59.00;;;29.87;;
5125;SDS011;63008;53.112;8.896;2022-12-13T04:53:21;53.03;;;28.67;;
5125;SDS011;63008;53.112;8.896;2022-12-13T04:55:22;47.80;;;27.53;;
5125;SDS011;63008;53.112;8.896;2022-12-13T04:57:23;45.80;;;26.23;;
5125;SDS011;63008;53.112;8.896;2022-12-13T04:59:24;47.17;;;25.53;;
5125;SDS011;63008;53.112;8.896;2022-12-13T05:01:25;54.90;;;26.63;;
5125;SDS011;63008;53.112;8.896;2022-12-13T05:03:26;49.03;;;27.03;;
5125;SDS011;63008;53.112;8.896;2022-12-13T05:05:28;52.20;;;26.53;;
5125;SDS011;63008;53.112;8.896;2022-12-13T05:07:28;44.97;;;26.17;;
5125;SDS011;63008;53.112;8.896;2022-12-13T05:09:30;47.57;;;26.60;;
5125;SDS011;63008;53.112;8.896;2022-12-13T05:11:31;52.20;;;26.23;;
5125;SDS011;63008;53.112;8.896;2022-12-13T05:13:32;46.10;;;26.03;;
5125;SDS011;63008;53.112;8.896;2022-12-13T05:15:34;51.77;;;27.13;;
5125;SDS011;63008;53.112;8.896;2022-12-13T05:17:35;45.00;;;24.90;;
5125;SDS011;63008;53.112;8.896;2022-12-13T05:19:36;49.80;;;27.40;;
5125;SDS011;63008;53.112;8.896;2022-12-13T05:21:37;49.27;;;26.00;;
5125;SDS011;63008;53.112;8.896;2022-12-13T05:23:38;43.53;;;23.93;;
5125;SDS011;63008;53.112;8.896;2022-12-13T05:25:39;52.83;;;27.73;;
5125;SDS011;63008;53.112;8.896;2022-12-13T05:27:40;47.83;;;26.63;;
5125;SDS011;63008;53.112;8.896;2022-12-13T05:29:41;45.60;;;24.90;;
5125;SDS011;63008;53.112;8.896;2022-12-13T05:31:42;48.10;;;24.93;;
5125;SDS011;63008;53.112;8.896;2022-12-13T05:33:43;48.00;;;25.50;;
5125;SDS011;63008;53.112;8.896;2022-12-13T05:35:44;47.03;;;25.17;;
5125;SDS011;63008;53.112;8.896;2022-12-13T05:37:46;49.90;;;26.00;;
5125;SDS011;63008;53.112;8.896;2022-12-13T05:39:47;48.57;;;25.63;;
5125;SDS011;63008;53.112;8.896;2022-12-13T05:41:47;45.60;;;25.43;;
5125;SDS011;63008;53.112;8.896;2022-12-13T05:43:49;52.77;;;25.97;;
5125;SDS011;63008;53.112;8.896;2022-12-13T05:45:50;52.00;;;26.87;;
5125;SDS011;63008;53.112;8.896;2022-12-13T05:47:52;49.80;;;26.13;;
5125;SDS011;63008;53.112;8.896;2022-12-13T05:49:53;46.93;;;24.30;;
5125;SDS011;63008;53.112;8.896;2022-12-13T05:51:54;53.77;;;27.80;;
5125;SDS011;63008;53.112;8.896;2022-12-13T05:53:55;48.10;;;25.70;;
5125;SDS011;63008;53.112;8.896;2022-12-13T05:55:59;45.43;;;24.87;;
5125;SDS011;63008;53.112;8.896;2022-12-13T05:58:03;50.30;;;25.53;;
5125;SDS011;63008;53.112;8.896;2022-12-13T06:00:05;52.57;;;27.67;;
5125;SDS011;63008;53.112;8.896;2022-12-13T06:02:08;52.27;;;26.90;;
5125;SDS011;63008;53.112;8.896;2022-12-13T06:04:09;50.60;;;26.40;;
5125;SDS011;63008;53.112;8.896;2022-12-13T06:06:11;49.40;;;27.17;;
5125;SDS011;63008;53.112;8.896;2022-12-13T06:08:12;55.37;;;28.77;;
5125;SDS011;63008;53.112;8.896;2022-12-13T06:10:13;52.93;;;25.97;;
5125;SDS011;63008;53.112;8.896;2022-12-13T06:12:14;56.00;;;27.50;;
5125;SDS011;63008;53.112;8.896;2022-12-13T06:14:15;47.20;;;25.50;;
5125;SDS011;63008;53.112;8.896;2022-12-13T06:16:16;50.50;;;25.20;;
5125;SDS011;63008;53.112;8.896;2022-12-13T06:18:17;48.37;;;27.00;;
5125;SDS011;63008;53.112;8.896;2022-12-13T06:20:18;51.23;;;25.93;;
5125;SDS011;63008;53.112;8.896;2022-12-13T06:22:20;49.53;;;25.50;;
5125;SDS011;63008;53.112;8.896;2022-12-13T06:24:21;53.93;;;26.53;;
5125;SDS011;63008;53.112;8.896;2022-12-13T06:26:23;51.73;;;26.00;;
5125;SDS011;63008;53.112;8.896;2022-12-13T06:28:25;52.20;;;26.73;;
5125;SDS011;63008;53.112;8.896;2022-12-13T06:30:25;53.90;;;28.50;;
5125;SDS011;63008;53.112;8.896;2022-12-13T06:32:26;49.37;;;26.50;;
5125;SDS011;63008;53.112;8.896;2022-12-13T06:34:28;51.40;;;26.20;;
5125;SDS011;63008;53.112;8.896;2022-12-13T06:36:30;47.77;;;24.63;;
5125;SDS011;63008;53.112;8.896;2022-12-13T06:38:31;49.33;;;25.33;;
5125;SDS011;63008;53.112;8.896;2022-12-13T06:40:32;48.20;;;25.63;;
5125;SDS011;63008;53.112;8.896;2022-12-13T06:42:33;45.27;;;25.27;;
5125;SDS011;63008;53.112;8.896;2022-12-13T06:44:34;52.33;;;26.57;;
5125;SDS011;63008;53.112;8.896;2022-12-13T06:46:36;43.57;;;24.90;;
5125;SDS011;63008;53.112;8.896;2022-12-13T06:48:37;45.27;;;25.30;;
5125;SDS011;63008;53.112;8.896;2022-12-13T06:50:40;45.13;;;24.97;;
5125;SDS011;63008;53.112;8.896;2022-12-13T06:52:41;46.27;;;25.10;;
5125;SDS011;63008;53.112;8.896;2022-12-13T06:54:42;43.10;;;23.30;;
5125;SDS011;63008;53.112;8.896;2022-12-13T06:56:43;44.07;;;24.50;;
5125;SDS011;63008;53.112;8.896;2022-12-13T06:58:44;43.47;;;25.53;;
5125;SDS011;63008;53.112;8.896;2022-12-13T07:00:45;46.90;;;24.67;;
5125;SDS011;63008;53.112;8.896;2022-12-13T07:02:50;43.40;;;24.43;;
5125;SDS011;63008;53.112;8.896;2022-12-13T07:04:52;44.20;;;24.07;;
5125;SDS011;63008;53.112;8.896;2022-12-13T07:06:53;45.50;;;24.17;;
5125;SDS011;63008;53.112;8.896;2022-12-13T07:08:55;49.80;;;26.13;;
5125;SDS011;63008;53.112;8.896;2022-12-13T07:10:57;53.00;;;24.90;;
5125;SDS011;63008;53.112;8.896;2022-12-13T07:12:58;45.23;;;24.43;;
5125;SDS011;63008;53.112;8.896;2022-12-13T07:14:59;50.03;;;25.83;;
5125;SDS011;63008;53.112;8.896;2022-12-13T07:17:00;48.53;;;26.37;;
5125;SDS011;63008;53.112;8.896;2022-12-13T07:19:01;44.60;;;24.67;;
5125;SDS011;63008;53.112;8.896;2022-12-13T07:21:04;45.73;;;24.57;;
5125;SDS011;63008;53.112;8.896;2022-12-13T07:23:06;49.50;;;26.92;;
5125;SDS011;63008;53.112;8.896;2022-12-13T07:25:07;42.43;;;20.93;;
5125;SDS011;63008;53.112;8.896;2022-12-13T07:27:08;47.97;;;24.43;;
5125;SDS011;63008;53.112;8.896;2022-12-13T07:29:09;49.73;;;24.30;;
5125;SDS011;63008;53.112;8.896;2022-12-13T07:31:11;48.50;;;25.30;;
5125;SDS011;63008;53.112;8.896;2022-12-13T07:33:13;52.90;;;24.93;;
5125;SDS011;63008;53.112;8.896;2022-12-13T07:35:14;49.97;;;26.57;;
5125;SDS011;63008;53.112;8.896;2022-12-13T07:37:15;56.40;;;25.97;;
5125;SDS011;63008;53.112;8.896;2022-12-13T07:39:16;52.97;;;27.00;;
5125;SDS011;63008;53.112;8.896;2022-12-13T07:41:17;47.63;;;24.97;;
5125;SDS011;63008;53.112;8.896;2022-12-13T07:43:19;46.20;;;26.40;;
5125;SDS011;63008;53.112;8.896;2022-12-13T07:45:21;48.27;;;24.80;;
5125;SDS011;63008;53.112;8.896;2022-12-13T07:47:22;51.80;;;25.17;;
5125;SDS011;63008;53.112;8.896;2022-12-13T07:49:25;59.20;;;28.30;;
5125;SDS011;63008;53.112;8.896;2022-12-13T07:51:26;50.43;;;25.70;;
5125;SDS011;63008;53.112;8.896;2022-12-13T07:53:27;56.80;;;26.50;;
5125;SDS011;63008;53.112;8.896;2022-12-13T07:55:28;46.60;;;24.80;;
5125;SDS011;63008;53.112;8.896;2022-12-13T07:57:29;58.43;;;26.53;;
5125;SDS011;63008;53.112;8.896;2022-12-13T07:59:31;51.63;;;26.27;;
5125;SDS011;63008;53.112;8.896;2022-12-13T08:01:32;55.27;;;26.70;;
5125;SDS011;63008;53.112;8.896;2022-12-13T08:03:36;53.03;;;26.97;;
5125;SDS011;63008;53.112;8.896;2022-12-13T08:05:37;50.83;;;26.63;;
5125;SDS011;63008;53.112;8.896;2022-12-13T08:07:39;59.83;;;26.90;;
5125;SDS011;63008;53.112;8.896;2022-12-13T08:09:40;59.67;;;29.47;;
5125;SDS011;63008;53.112;8.896;2022-12-13T08:11:40;70.10;;;30.57;;
5125;SDS011;63008;53.112;8.896;2022-12-13T08:13:41;67.40;;;29.77;;
5125;SDS011;63008;53.112;8.896;2022-12-13T08:15:43;75.17;;;28.97;;
5125;SDS011;63008;53.112;8.896;2022-12-13T08:17:44;78.27;;;30.40;;
5125;SDS011;63008;53.112;8.896;2022-12-13T08:19:45;84.00;;;32.17;;
5125;SDS011;63008;53.112;8.896;2022-12-13T08:21:46;71.83;;;30.53;;
5125;SDS011;63008;53.112;8.896;2022-12-13T08:23:47;80.93;;;33.43;;
5125;SDS011;63008;53.112;8.896;2022-12-13T08:25:51;77.70;;;31.67;;
5125;SDS011;63008;53.112;8.896;2022-12-13T08:27:53;83.60;;;32.50;;
5125;SDS011;63008;53.112;8.896;2022-12-13T08:29:54;79.53;;;31.30;;
5125;SDS011;63008;53.112;8.896;2022-12-13T08:31:56;81.57;;;31.67;;
5125;SDS011;63008;53.112;8.896;2022-12-13T08:34:44;117.03;;;35.60;;
5125;SDS011;63008;53.112;8.896;2022-12-13T08:36:45;107.40;;;34.83;;
5125;SDS011;63008;53.112;8.896;2022-12-13T08:38:46;93.43;;;34.20;;
5125;SDS011;63008;53.112;8.896;2022-12-13T08:40:47;103.00;;;36.00;;
5125;SDS011;63008;53.112;8.896;2022-12-13T08:42:48;157.17;;;38.50;;
5125;SDS011;63008;53.112;8.896;2022-12-13T08:44:50;106.07;;;38.73;;
5125;SDS011;63008;53.112;8.896;2022-12-13T08:46:52;112.00;;;37.83;;
5125;SDS011;63008;53.112;8.896;2022-12-13T08:48:53;160.17;;;39.60;;
5125;SDS011;63008;53.112;8.896;2022-12-13T08:50:58;126.27;;;40.20;;
5125;SDS011;63008;53.112;8.896;2022-12-13T08:53:00;156.50;;;37.80;;
5125;SDS011;63008;53.112;8.896;2022-12-13T08:55:01;111.10;;;38.80;;
5125;SDS011;63008;53.112;8.896;2022-12-13T08:57:02;164.57;;;44.17;;
5125;SDS011;63008;53.112;8.896;2022-12-13T08:59:03;143.47;;;39.90;;
5125;SDS011;63008;53.112;8.896;2022-12-13T09:01:05;103.67;;;39.50;;
5125;SDS011;63008;53.112;8.896;2022-12-13T09:03:07;98.83;;;38.47;;
5125;SDS011;63008;53.112;8.896;2022-12-13T09:05:08;108.43;;;38.17;;
5125;SDS011;63008;53.112;8.896;2022-12-13T09:07:10;98.03;;;37.63;;
5125;SDS011;63008;53.112;8.896;2022-12-13T09:09:12;92.17;;;37.57;;
5125;SDS011;63008;53.112;8.896;2022-12-13T09:11:13;92.07;;;38.90;;
5125;SDS011;63008;53.112;8.896;2022-12-13T09:13:14;102.63;;;38.93;;
5125;SDS011;63008;53.112;8.896;2022-12-13T09:15:15;100.93;;;37.67;;
5125;SDS011;63008;53.112;8.896;2022-12-13T09:17:16;91.83;;;36.57;;
5125;SDS011;63008;53.112;8.896;2022-12-13T09:19:17;103.63;;;37.63;;
5125;SDS011;63008;53.112;8.896;2022-12-13T09:21:18;110.43;;;38.43;;
5125;SDS011;63008;53.112;8.896;2022-12-13T09:23:19;92.80;;;37.10;;
5125;SDS011;63008;53.112;8.896;2022-12-13T09:25:20;96.03;;;37.27;;
5125;SDS011;63008;53.112;8.896;2022-12-13T09:27:21;98.87;;;36.50;;
5125;SDS011;63008;53.112;8.896;2022-12-13T09:29:22;92.87;;;35.87;;
5125;SDS011;63008;53.112;8.896;2022-12-13T09:31:23;104.63;;;36.53;;
5125;SDS011;63008;53.112;8.896;2022-12-13T09:33:24;100.00;;;37.47;;
5125;SDS011;63008;53.112;8.896;2022-12-13T09:35:25;90.53;;;36.33;;
5125;SDS011;63008;53.112;8.896;2022-12-13T09:37:26;95.03;;;38.70;;
5125;SDS011;63008;53.112;8.896;2022-12-13T09:39:28;95.37;;;37.67;;
5125;SDS011;63008;53.112;8.896;2022-12-13T09:41:30;89.03;;;33.00;;
5125;SDS011;63008;53.112;8.896;2022-12-13T09:43:35;97.70;;;37.20;;
5125;SDS011;63008;53.112;8.896;2022-12-13T09:45:37;95.70;;;35.70;;
5125;SDS011;63008;53.112;8.896;2022-12-13T09:47:44;89.50;;;34.00;;
5125;SDS011;63008;53.112;8.896;2022-12-13T09:49:47;94.13;;;37.50;;
5125;SDS011;63008;53.112;8.896;2022-12-13T09:51:52;98.00;;;34.77;;
5125;SDS011;63008;53.112;8.896;2022-12-13T09:53:56;85.83;;;34.23;;
5125;SDS011;63008;53.112;8.896;2022-12-13T09:55:57;93.20;;;36.00;;
5125;SDS011;63008;53.112;8.896;2022-12-13T09:57:59;92.50;;;33.30;;
5125;SDS011;63008;53.112;8.896;2022-12-13T10:00:05;88.57;;;34.47;;
5125;SDS011;63008;53.112;8.896;2022-12-13T10:02:27;89.23;;;34.87;;
5125;SDS011;63008;53.112;8.896;2022-12-13T10:04:30;92.90;;;37.43;;
5125;SDS011;63008;53.112;8.896;2022-12-13T10:06:31;92.23;;;38.00;;
5125;SDS011;63008;53.112;8.896;2022-12-13T10:08:35;112.40;;;37.73;;
5125;SDS011;63008;53.112;8.896;2022-12-13T10:10:43;87.73;;;33.90;;
5125;SDS011;63008;53.112;8.896;2022-12-13T10:12:45;94.57;;;34.80;;
5125;SDS011;63008;53.112;8.896;2022-12-13T10:14:53;84.67;;;34.30;;
5125;SDS011;63008;53.112;8.896;2022-12-13T10:16:59;85.53;;;34.17;;
5125;SDS011;63008;53.112;8.896;2022-12-13T10:21:34;98.87;;;38.17;;
5125;SDS011;63008;53.112;8.896;2022-12-13T10:23:38;95.67;;;37.70;;
5125;SDS011;63008;53.112;8.896;2022-12-13T10:25:43;96.70;;;35.43;;
5125;SDS011;63008;53.112;8.896;2022-12-13T10:27:47;88.50;;;32.10;;
5125;SDS011;63008;53.112;8.896;2022-12-13T10:29:58;90.13;;;34.90;;
5125;SDS011;63008;53.112;8.896;2022-12-13T10:32:00;109.23;;;35.80;;
5125;SDS011;63008;53.112;8.896;2022-12-13T10:34:25;114.13;;;35.83;;
5125;SDS011;63008;53.112;8.896;2022-12-13T10:36:32;113.53;;;39.77;;
5125;SDS011;63008;53.112;8.896;2022-12-13T10:38:36;102.63;;;36.40;;
5125;SDS011;63008;53.112;8.896;2022-12-13T10:40:39;113.30;;;39.97;;
5125;SDS011;63008;53.112;8.896;2022-12-13T10:42:53;113.53;;;39.13;;
5125;SDS011;63008;53.112;8.896;2022-12-13T10:45:12;129.33;;;43.17;;
5125;SDS011;63008;53.112;8.896;2022-12-13T10:47:16;110.90;;;39.60;;
5125;SDS011;63008;53.112;8.896;2022-12-13T10:49:21;118.43;;;37.50;;
5125;SDS011;63008;53.112;8.896;2022-12-13T10:51:24;118.63;;;38.27;;
5125;SDS011;63008;53.112;8.896;2022-12-13T10:53:29;102.87;;;39.27;;
5125;SDS011;63008;53.112;8.896;2022-12-13T10:55:39;96.40;;;37.60;;
5125;SDS011;63008;53.112;8.896;2022-12-13T10:57:40;108.00;;;37.60;;
5125;SDS011;63008;53.112;8.896;2022-12-13T10:59:50;111.07;;;39.73;;
5125;SDS011;63008;53.112;8.896;2022-12-13T11:01:52;117.53;;;39.90;;
5125;SDS011;63008;53.112;8.896;2022-12-13T11:03:55;108.67;;;40.33;;
5125;SDS011;63008;53.112;8.896;2022-12-13T11:06:13;108.97;;;37.50;;
5125;SDS011;63008;53.112;8.896;2022-12-13T11:08:21;113.03;;;38.63;;
5125;SDS011;63008;53.112;8.896;2022-12-13T11:10:27;117.87;;;40.63;;
5125;SDS011;63008;53.112;8.896;2022-12-13T11:12:28;110.40;;;41.40;;
5125;SDS011;63008;53.112;8.896;2022-12-13T11:14:33;102.77;;;41.13;;
5125;SDS011;63008;53.112;8.896;2022-12-13T11:16:39;113.20;;;41.33;;
5125;SDS011;63008;53.112;8.896;2022-12-13T11:18:41;114.30;;;41.27;;
5125;SDS011;63008;53.112;8.896;2022-12-13T11:20:46;120.67;;;41.40;;
5125;SDS011;63008;53.112;8.896;2022-12-13T11:23:05;99.17;;;36.97;;
5125;SDS011;63008;53.112;8.896;2022-12-13T11:25:21;102.80;;;36.90;;
5125;SDS011;63008;53.112;8.896;2022-12-13T11:29:48;84.17;;;34.27;;
5125;SDS011;63008;53.112;8.896;2022-12-13T11:37:00;67.33;;;30.83;;
5125;SDS011;63008;53.112;8.896;2022-12-13T11:41:25;63.13;;;29.47;;
5125;SDS011;63008;53.112;8.896;2022-12-13T11:43:43;67.23;;;29.60;;
5125;SDS011;63008;53.112;8.896;2022-12-13T11:45:52;67.10;;;31.00;;
5125;SDS011;63008;53.112;8.896;2022-12-13T11:50:27;60.37;;;30.40;;
5125;SDS011;63008;53.112;8.896;2022-12-13T11:52:34;68.13;;;31.80;;
5125;SDS011;63008;53.112;8.896;2022-12-13T11:54:46;61.23;;;29.53;;
5125;SDS011;63008;53.112;8.896;2022-12-13T11:56:59;67.73;;;30.57;;
5125;SDS011;63008;53.112;8.896;2022-12-13T11:59:14;67.43;;;32.70;;
5125;SDS011;63008;53.112;8.896;2022-12-13T12:01:31;66.07;;;31.43;;
5125;SDS011;63008;53.112;8.896;2022-12-13T12:03:39;63.10;;;29.00;;
5125;SDS011;63008;53.112;8.896;2022-12-13T12:05:54;57.40;;;29.63;;
5125;SDS011;63008;53.112;8.896;2022-12-13T12:08:11;52.47;;;26.90;;
5125;SDS011;63008;53.112;8.896;2022-12-13T12:10:29;62.13;;;29.80;;
5125;SDS011;63008;53.112;8.896;2022-12-13T12:12:36;64.53;;;29.40;;
5125;SDS011;63008;53.112;8.896;2022-12-13T12:15:42;63.60;;;30.93;;
5125;SDS011;63008;53.112;8.896;2022-12-13T12:17:21;54.60;;;28.10;;
5125;SDS011;63008;53.112;8.896;2022-12-13T12:19:25;57.77;;;27.40;;
5125;SDS011;63008;53.112;8.896;2022-12-13T12:21:35;55.93;;;27.47;;
5125;SDS011;63008;53.112;8.896;2022-12-13T12:23:45;55.73;;;28.67;;
5125;SDS011;63008;53.112;8.896;2022-12-13T12:26:12;57.60;;;29.70;;
5125;SDS011;63008;53.112;8.896;2022-12-13T12:28:24;52.23;;;27.60;;
5125;SDS011;63008;53.112;8.896;2022-12-13T12:30:54;51.40;;;27.50;;
5125;SDS011;63008;53.112;8.896;2022-12-13T12:33:23;53.93;;;29.03;;
5125;SDS011;63008;53.112;8.896;2022-12-13T12:35:43;51.83;;;28.50;;
5125;SDS011;63008;53.112;8.896;2022-12-13T12:37:52;55.23;;;28.17;;
5125;SDS011;63008;53.112;8.896;2022-12-13T12:40:26;59.37;;;27.47;;
5125;SDS011;63008;53.112;8.896;2022-12-13T12:45:03;55.40;;;28.80;;
5125;SDS011;63008;53.112;8.896;2022-12-13T12:47:48;52.13;;;26.30;;
5125;SDS011;63008;53.112;8.896;2022-12-13T12:49:56;54.13;;;26.70;;
5125;SDS011;63008;53.112;8.896;2022-12-13T12:57:12;53.70;;;27.97;;